sensor_id;sensor_type;location;lat;lon;timestamp;P1;durP1;ratioP1;P2;durP2;ratioP2
3911;SDS011;1971;51.778;10.330;2023-07-29T00:01:21;6.90;;;3.30;;
3911;SDS011;1971;51.778;10.330;2023-07-29T00:03:51;118.83;;;14.03;;
3911;SDS011;1971;51.778;10.330;2023-07-29T00:06:21;61.73;;;7.53;;
3911;SDS011;1971;51.778;10.330;2023-07-29T00:08:51;3.27;;;3.07;;
3911;SDS011;1971;51.778;10.330;2023-07-29T00:11:21;4.93;;;3.70;;
3911;SDS011;1971;51.778;10.330;2023-07-29T00:13:54;4.37;;;4.07;;
3911;SDS011;1971;51.778;10.330;2023-07-29T00:16:24;10.90;;;4.67;;
3911;SDS011;1971;51.778;10.330;2023-07-29T00:18:54;31.00;;;6.33;;
3911;SDS011;1971;51.778;10.330;2023-07-29T00:21:25;5.37;;;3.60;;
3911;SDS011;1971;51.778;10.330;2023-07-29T00:23:55;3.83;;;3.53;;
3911;SDS011;1971;51.778;10.330;2023-07-29T00:26:27;3.30;;;3.10;;
3911;SDS011;1971;51.778;10.330;2023-07-29T00:29:02;3.30;;;3.10;;
3911;SDS011;1971;51.778;10.330;2023-07-29T00:31:32;4.00;;;3.67;;
3911;SDS011;1971;51.778;10.330;2023-07-29T00:34:02;4.73;;;3.87;;
3911;SDS011;1971;51.778;10.330;2023-07-29T00:36:32;4.67;;;4.37;;
3911;SDS011;1971;51.778;10.330;2023-07-29T00:39:03;5.23;;;4.40;;
3911;SDS011;1971;51.778;10.330;2023-07-29T00:41:33;4.50;;;4.07;;
3911;SDS011;1971;51.778;10.330;2023-07-29T00:44:06;4.50;;;4.20;;
3911;SDS011;1971;51.778;10.330;2023-07-29T00:46:37;11.93;;;5.23;;
3911;SDS011;1971;51.778;10.330;2023-07-29T00:49:09;5.07;;;4.47;;
3911;SDS011;1971;51.778;10.330;2023-07-29T00:51:40;4.60;;;4.30;;
3911;SDS011;1971;51.778;10.330;2023-07-29T00:54:11;6.87;;;3.80;;
3911;SDS011;1971;51.778;10.330;2023-07-29T00:56:41;4.37;;;4.10;;
3911;SDS011;1971;51.778;10.330;2023-07-29T00:59:14;4.03;;;3.73;;
3911;SDS011;1971;51.778;10.330;2023-07-29T01:01:45;3.93;;;3.63;;
3911;SDS011;1971;51.778;10.330;2023-07-29T01:04:16;4.57;;;4.10;;
3911;SDS011;1971;51.778;10.330;2023-07-29T01:06:47;3.50;;;3.30;;
3911;SDS011;1971;51.778;10.330;2023-07-29T01:09:29;4.20;;;3.90;;
3911;SDS011;1971;51.778;10.330;2023-07-29T01:12:08;4.10;;;3.90;;
3911;SDS011;1971;51.778;10.330;2023-07-29T01:14:50;3.80;;;3.60;;
3911;SDS011;1971;51.778;10.330;2023-07-29T01:17:25;3.90;;;3.70;;
3911;SDS011;1971;51.778;10.330;2023-07-29T01:20:00;3.73;;;3.53;;
3911;SDS011;1971;51.778;10.330;2023-07-29T01:22:32;3.80;;;3.60;;
3911;SDS011;1971;51.778;10.330;2023-07-29T01:25:07;3.30;;;3.10;;
3911;SDS011;1971;51.778;10.330;2023-07-29T01:27:38;4.03;;;3.53;;
3911;SDS011;1971;51.778;10.330;2023-07-29T01:30:08;4.43;;;4.03;;
3911;SDS011;1971;51.778;10.330;2023-07-29T01:32:43;4.03;;;3.60;;
3911;SDS011;1971;51.778;10.330;2023-07-29T01:35:19;4.20;;;3.90;;
3911;SDS011;1971;51.778;10.330;2023-07-29T01:37:55;4.10;;;3.20;;
3911;SDS011;1971;51.778;10.330;2023-07-29T01:40:31;3.90;;;3.67;;
3911;SDS011;1971;51.778;10.330;2023-07-29T01:43:02;3.30;;;3.10;;
3911;SDS011;1971;51.778;10.330;2023-07-29T01:45:34;3.70;;;3.50;;
3911;SDS011;1971;51.778;10.330;2023-07-29T01:48:05;5.13;;;3.13;;
3911;SDS011;1971;51.778;10.330;2023-07-29T01:50:36;3.70;;;3.40;;
3911;SDS011;1971;51.778;10.330;2023-07-29T01:53:06;3.83;;;3.47;;
3911;SDS011;1971;51.778;10.330;2023-07-29T01:55:39;3.50;;;3.30;;
3911;SDS011;1971;51.778;10.330;2023-07-29T01:58:11;4.10;;;3.30;;
3911;SDS011;1971;51.778;10.330;2023-07-29T02:00:45;3.67;;;3.37;;
3911;SDS011;1971;51.778;10.330;2023-07-29T02:03:15;3.40;;;3.20;;
3911;SDS011;1971;51.778;10.330;2023-07-29T02:05:45;3.90;;;3.10;;
3911;SDS011;1971;51.778;10.330;2023-07-29T02:08:16;3.80;;;3.57;;
3911;SDS011;1971;51.778;10.330;2023-07-29T02:10:49;5.80;;;3.90;;
3911;SDS011;1971;51.778;10.330;2023-07-29T02:13:19;3.90;;;3.60;;
3911;SDS011;1971;51.778;10.330;2023-07-29T02:15:49;4.17;;;3.80;;
3911;SDS011;1971;51.778;10.330;2023-07-29T02:18:19;4.17;;;3.87;;
3911;SDS011;1971;51.778;10.330;2023-07-29T02:20:49;4.27;;;3.97;;
3911;SDS011;1971;51.778;10.330;2023-07-29T02:23:19;3.30;;;3.10;;
3911;SDS011;1971;51.778;10.330;2023-07-29T02:25:52;4.10;;;3.87;;
3911;SDS011;1971;51.778;10.330;2023-07-29T02:28:22;4.03;;;3.73;;
3911;SDS011;1971;51.778;10.330;2023-07-29T02:33:45;4.50;;;3.73;;
3911;SDS011;1971;51.778;10.330;2023-07-29T02:36:16;5.37;;;3.60;;
3911;SDS011;1971;51.778;10.330;2023-07-29T02:38:47;3.33;;;3.03;;
3911;SDS011;1971;51.778;10.330;2023-07-29T02:41:20;3.60;;;3.30;;
3911;SDS011;1971;51.778;10.330;2023-07-29T02:43:50;3.53;;;3.23;;
3911;SDS011;1971;51.778;10.330;2023-07-29T02:46:21;3.30;;;3.10;;
3911;SDS011;1971;51.778;10.330;2023-07-29T02:48:51;3.70;;;3.50;;
3911;SDS011;1971;51.778;10.330;2023-07-29T02:51:21;4.20;;;3.90;;
3911;SDS011;1971;51.778;10.330;2023-07-29T02:53:51;4.10;;;3.80;;
3911;SDS011;1971;51.778;10.330;2023-07-29T02:56:24;5.70;;;4.40;;
3911;SDS011;1971;51.778;10.330;2023-07-29T02:58:54;4.40;;;4.10;;
3911;SDS011;1971;51.778;10.330;2023-07-29T03:01:25;5.30;;;4.90;;
3911;SDS011;1971;51.778;10.330;2023-07-29T03:03:56;4.70;;;4.40;;
3911;SDS011;1971;51.778;10.330;2023-07-29T03:06:26;4.90;;;4.60;;
3911;SDS011;1971;51.778;10.330;2023-07-29T03:08:57;4.83;;;4.43;;
3911;SDS011;1971;51.778;10.330;2023-07-29T03:11:29;4.70;;;4.40;;
3911;SDS011;1971;51.778;10.330;2023-07-29T03:14:00;5.10;;;4.70;;
3911;SDS011;1971;51.778;10.330;2023-07-29T03:16:30;5.30;;;4.33;;
3911;SDS011;1971;51.778;10.330;2023-07-29T03:19:01;4.33;;;4.03;;
3911;SDS011;1971;51.778;10.330;2023-07-29T03:21:32;5.00;;;4.70;;
3911;SDS011;1971;51.778;10.330;2023-07-29T03:24:04;4.50;;;4.20;;
3911;SDS011;1971;51.778;10.330;2023-07-29T03:26:37;4.93;;;4.53;;
3911;SDS011;1971;51.778;10.330;2023-07-29T03:29:11;4.67;;;4.27;;
3911;SDS011;1971;51.778;10.330;2023-07-29T03:31:41;5.00;;;4.70;;
3911;SDS011;1971;51.778;10.330;2023-07-29T03:34:11;7.17;;;4.30;;
3911;SDS011;1971;51.778;10.330;2023-07-29T03:36:45;5.53;;;4.67;;
3911;SDS011;1971;51.778;10.330;2023-07-29T03:39:17;5.30;;;4.90;;
3911;SDS011;1971;51.778;10.330;2023-07-29T03:41:50;4.83;;;4.53;;
3911;SDS011;1971;51.778;10.330;2023-07-29T03:44:20;5.23;;;4.90;;
3911;SDS011;1971;51.778;10.330;2023-07-29T03:46:51;4.93;;;4.53;;
3911;SDS011;1971;51.778;10.330;2023-07-29T03:49:21;4.53;;;4.23;;
3911;SDS011;1971;51.778;10.330;2023-07-29T03:51:51;4.80;;;4.50;;
3911;SDS011;1971;51.778;10.330;2023-07-29T03:54:21;5.00;;;4.57;;
3911;SDS011;1971;51.778;10.330;2023-07-29T03:56:54;5.10;;;4.73;;
3911;SDS011;1971;51.778;10.330;2023-07-29T03:59:25;5.20;;;4.90;;
3911;SDS011;1971;51.778;10.330;2023-07-29T04:01:56;5.30;;;4.90;;
3911;SDS011;1971;51.778;10.330;2023-07-29T04:04:26;5.50;;;5.20;;
3911;SDS011;1971;51.778;10.330;2023-07-29T04:06:57;5.77;;;5.37;;
3911;SDS011;1971;51.778;10.330;2023-07-29T04:09:27;5.97;;;5.40;;
3911;SDS011;1971;51.778;10.330;2023-07-29T04:12:00;4.93;;;4.63;;
3911;SDS011;1971;51.778;10.330;2023-07-29T04:14:31;5.67;;;5.27;;
3911;SDS011;1971;51.778;10.330;2023-07-29T04:17:02;5.40;;;5.00;;
3911;SDS011;1971;51.778;10.330;2023-07-29T04:19:33;4.80;;;4.40;;
3911;SDS011;1971;51.778;10.330;2023-07-29T04:22:03;4.97;;;4.67;;
3911;SDS011;1971;51.778;10.330;2023-07-29T04:24:34;4.73;;;4.43;;
3911;SDS011;1971;51.778;10.330;2023-07-29T04:27:07;4.27;;;4.07;;
3911;SDS011;1971;51.778;10.330;2023-07-29T04:29:38;4.67;;;4.37;;
3911;SDS011;1971;51.778;10.330;2023-07-29T04:32:08;4.43;;;4.13;;
3911;SDS011;1971;51.778;10.330;2023-07-29T04:34:41;4.00;;;3.60;;
3911;SDS011;1971;51.778;10.330;2023-07-29T04:37:11;4.40;;;4.10;;
3911;SDS011;1971;51.778;10.330;2023-07-29T04:39:42;4.60;;;4.30;;
3911;SDS011;1971;51.778;10.330;2023-07-29T04:42:16;4.33;;;4.03;;
3911;SDS011;1971;51.778;10.330;2023-07-29T04:44:48;5.03;;;4.73;;
3911;SDS011;1971;51.778;10.330;2023-07-29T04:47:18;4.97;;;4.67;;
3911;SDS011;1971;51.778;10.330;2023-07-29T04:49:51;5.33;;;4.20;;
3911;SDS011;1971;51.778;10.330;2023-07-29T04:52:21;5.30;;;5.00;;
3911;SDS011;1971;51.778;10.330;2023-07-29T04:54:52;4.40;;;4.20;;
3911;SDS011;1971;51.778;10.330;2023-07-29T04:57:25;4.20;;;4.00;;
3911;SDS011;1971;51.778;10.330;2023-07-29T04:59:56;4.70;;;4.40;;
3911;SDS011;1971;51.778;10.330;2023-07-29T05:02:26;4.17;;;3.90;;
3911;SDS011;1971;51.778;10.330;2023-07-29T05:04:57;4.47;;;4.17;;
3911;SDS011;1971;51.778;10.330;2023-07-29T05:07:28;3.83;;;3.63;;
3911;SDS011;1971;51.778;10.330;2023-07-29T05:09:59;4.20;;;3.93;;
3911;SDS011;1971;51.778;10.330;2023-07-29T05:12:32;4.23;;;3.40;;
3911;SDS011;1971;51.778;10.330;2023-07-29T05:15:03;3.27;;;3.07;;
3911;SDS011;1971;51.778;10.330;2023-07-29T05:17:35;4.60;;;4.30;;
3911;SDS011;1971;51.778;10.330;2023-07-29T05:20:06;3.57;;;3.37;;
3911;SDS011;1971;51.778;10.330;2023-07-29T05:22:37;4.20;;;4.00;;
3911;SDS011;1971;51.778;10.330;2023-07-29T05:25:08;3.80;;;3.50;;
3911;SDS011;1971;51.778;10.330;2023-07-29T05:27:41;3.87;;;3.67;;
3911;SDS011;1971;51.778;10.330;2023-07-29T05:30:11;3.90;;;3.60;;
3911;SDS011;1971;51.778;10.330;2023-07-29T05:32:41;4.20;;;4.00;;
3911;SDS011;1971;51.778;10.330;2023-07-29T05:35:12;3.80;;;3.60;;
3911;SDS011;1971;51.778;10.330;2023-07-29T05:37:42;4.10;;;3.80;;
3911;SDS011;1971;51.778;10.330;2023-07-29T05:40:13;3.43;;;3.23;;
3911;SDS011;1971;51.778;10.330;2023-07-29T05:42:46;3.90;;;3.60;;
3911;SDS011;1971;51.778;10.330;2023-07-29T05:45:16;2.67;;;2.47;;
3911;SDS011;1971;51.778;10.330;2023-07-29T05:47:47;4.70;;;3.00;;
3911;SDS011;1971;51.778;10.330;2023-07-29T05:50:18;1.97;;;1.87;;
3911;SDS011;1971;51.778;10.330;2023-07-29T05:52:48;1.70;;;1.60;;
3911;SDS011;1971;51.778;10.330;2023-07-29T05:55:19;2.20;;;2.10;;
3911;SDS011;1971;51.778;10.330;2023-07-29T05:57:52;1.90;;;1.80;;
3911;SDS011;1971;51.778;10.330;2023-07-29T06:00:22;2.00;;;1.90;;
3911;SDS011;1971;51.778;10.330;2023-07-29T06:02:53;10.27;;;4.20;;
3911;SDS011;1971;51.778;10.330;2023-07-29T06:05:23;3.10;;;2.90;;
3911;SDS011;1971;51.778;10.330;2023-07-29T06:07:54;4.20;;;3.83;;
3911;SDS011;1971;51.778;10.330;2023-07-29T06:10:24;3.77;;;3.57;;
3911;SDS011;1971;51.778;10.330;2023-07-29T06:12:57;4.17;;;3.87;;
3911;SDS011;1971;51.778;10.330;2023-07-29T06:15:27;12.60;;;5.17;;
3911;SDS011;1971;51.778;10.330;2023-07-29T06:17:57;4.53;;;4.13;;
3911;SDS011;1971;51.778;10.330;2023-07-29T06:20:28;5.90;;;5.40;;
3911;SDS011;1971;51.778;10.330;2023-07-29T06:22:58;5.90;;;5.40;;
3911;SDS011;1971;51.778;10.330;2023-07-29T06:25:29;38.40;;;8.37;;
3911;SDS011;1971;51.778;10.330;2023-07-29T06:28:01;5.77;;;5.37;;
3911;SDS011;1971;51.778;10.330;2023-07-29T06:30:32;6.33;;;5.63;;
3911;SDS011;1971;51.778;10.330;2023-07-29T06:33:02;11.73;;;7.67;;
3911;SDS011;1971;51.778;10.330;2023-07-29T06:35:32;5.83;;;5.43;;
3911;SDS011;1971;51.778;10.330;2023-07-29T06:38:02;5.63;;;3.20;;
3911;SDS011;1971;51.778;10.330;2023-07-29T06:40:33;3.93;;;2.33;;
3911;SDS011;1971;51.778;10.330;2023-07-29T06:43:05;4.13;;;1.43;;
3911;SDS011;1971;51.778;10.330;2023-07-29T06:45:36;1.87;;;1.40;;
3911;SDS011;1971;51.778;10.330;2023-07-29T06:48:07;1.10;;;1.00;;
3911;SDS011;1971;51.778;10.330;2023-07-29T06:50:37;1.93;;;1.70;;
3911;SDS011;1971;51.778;10.330;2023-07-29T06:53:07;4.40;;;4.10;;
3911;SDS011;1971;51.778;10.330;2023-07-29T06:55:37;5.10;;;4.80;;
3911;SDS011;1971;51.778;10.330;2023-07-29T06:58:10;75.53;;;11.60;;
3911;SDS011;1971;51.778;10.330;2023-07-29T07:00:41;361.23;;;33.17;;
3911;SDS011;1971;51.778;10.330;2023-07-29T07:03:11;428.17;;;33.53;;
3911;SDS011;1971;51.778;10.330;2023-07-29T07:05:41;745.00;;;57.97;;
3911;SDS011;1971;51.778;10.330;2023-07-29T07:08:12;392.13;;;33.63;;
3911;SDS011;1971;51.778;10.330;2023-07-29T07:10:42;23.80;;;6.57;;
3911;SDS011;1971;51.778;10.330;2023-07-29T07:13:15;4.93;;;4.60;;
3911;SDS011;1971;51.778;10.330;2023-07-29T07:15:45;4.40;;;4.00;;
3911;SDS011;1971;51.778;10.330;2023-07-29T07:18:15;4.30;;;3.90;;
3911;SDS011;1971;51.778;10.330;2023-07-29T07:20:49;5.33;;;2.60;;
3911;SDS011;1971;51.778;10.330;2023-07-29T07:23:20;1.60;;;1.50;;
3911;SDS011;1971;51.778;10.330;2023-07-29T07:25:50;2.67;;;1.23;;
3911;SDS011;1971;51.778;10.330;2023-07-29T07:28:23;1.30;;;1.30;;
3911;SDS011;1971;51.778;10.330;2023-07-29T07:30:53;4.50;;;4.20;;
3911;SDS011;1971;51.778;10.330;2023-07-29T07:33:23;126.80;;;15.53;;
3911;SDS011;1971;51.778;10.330;2023-07-29T07:35:54;146.30;;;17.50;;
3911;SDS011;1971;51.778;10.330;2023-07-29T07:38:24;7.67;;;5.23;;
3911;SDS011;1971;51.778;10.330;2023-07-29T07:40:54;4.40;;;4.10;;
3911;SDS011;1971;51.778;10.330;2023-07-29T07:43:27;8.60;;;8.00;;
3911;SDS011;1971;51.778;10.330;2023-07-29T07:45:58;227.57;;;24.00;;
3911;SDS011;1971;51.778;10.330;2023-07-29T07:48:30;320.30;;;30.33;;
3911;SDS011;1971;51.778;10.330;2023-07-29T07:51:00;13.00;;;8.83;;
3911;SDS011;1971;51.778;10.330;2023-07-29T07:53:38;8.57;;;7.87;;
3911;SDS011;1971;51.778;10.330;2023-07-29T07:56:09;13.33;;;9.10;;
3911;SDS011;1971;51.778;10.330;2023-07-29T07:58:42;50.10;;;11.10;;
3911;SDS011;1971;51.778;10.330;2023-07-29T08:01:12;73.13;;;14.77;;
3911;SDS011;1971;51.778;10.330;2023-07-29T08:03:42;21.80;;;8.97;;
3911;SDS011;1971;51.778;10.330;2023-07-29T08:06:12;7.97;;;7.37;;
3911;SDS011;1971;51.778;10.330;2023-07-29T08:08:43;8.73;;;8.03;;
3911;SDS011;1971;51.778;10.330;2023-07-29T08:11:13;7.27;;;6.77;;
3911;SDS011;1971;51.778;10.330;2023-07-29T08:13:46;6.30;;;5.90;;
3911;SDS011;1971;51.778;10.330;2023-07-29T08:16:16;6.50;;;6.10;;
3911;SDS011;1971;51.778;10.330;2023-07-29T08:18:46;7.10;;;6.60;;
3911;SDS011;1971;51.778;10.330;2023-07-29T08:21:16;6.80;;;6.30;;
3911;SDS011;1971;51.778;10.330;2023-07-29T08:23:46;7.43;;;6.90;;
3911;SDS011;1971;51.778;10.330;2023-07-29T08:26:16;6.97;;;6.43;;
3911;SDS011;1971;51.778;10.330;2023-07-29T08:28:49;7.87;;;7.33;;
3911;SDS011;1971;51.778;10.330;2023-07-29T08:31:21;7.83;;;7.23;;
3911;SDS011;1971;51.778;10.330;2023-07-29T08:33:51;9.43;;;7.90;;
3911;SDS011;1971;51.778;10.330;2023-07-29T08:36:21;6.50;;;6.10;;
3911;SDS011;1971;51.778;10.330;2023-07-29T08:38:51;6.47;;;6.07;;
3911;SDS011;1971;51.778;10.330;2023-07-29T08:41:25;6.53;;;6.03;;
3911;SDS011;1971;51.778;10.330;2023-07-29T08:44:02;6.90;;;6.40;;
3911;SDS011;1971;51.778;10.330;2023-07-29T08:46:39;6.67;;;6.17;;
3911;SDS011;1971;51.778;10.330;2023-07-29T08:49:11;6.87;;;6.47;;
3911;SDS011;1971;51.778;10.330;2023-07-29T08:51:46;7.50;;;6.97;;
3911;SDS011;1971;51.778;10.330;2023-07-29T08:54:17;7.00;;;6.60;;
3911;SDS011;1971;51.778;10.330;2023-07-29T08:56:48;6.53;;;6.13;;
3911;SDS011;1971;51.778;10.330;2023-07-29T08:59:21;6.77;;;5.93;;
3911;SDS011;1971;51.778;10.330;2023-07-29T09:01:51;6.37;;;5.97;;
3911;SDS011;1971;51.778;10.330;2023-07-29T09:04:24;4.97;;;4.67;;
3911;SDS011;1971;51.778;10.330;2023-07-29T09:06:55;4.73;;;4.33;;
3911;SDS011;1971;51.778;10.330;2023-07-29T09:09:27;4.97;;;4.67;;
3911;SDS011;1971;51.778;10.330;2023-07-29T09:11:57;5.00;;;4.70;;
3911;SDS011;1971;51.778;10.330;2023-07-29T09:14:30;4.87;;;4.57;;
3911;SDS011;1971;51.778;10.330;2023-07-29T09:17:01;5.47;;;5.17;;
3911;SDS011;1971;51.778;10.330;2023-07-29T09:19:32;5.50;;;5.10;;
3911;SDS011;1971;51.778;10.330;2023-07-29T09:22:03;5.60;;;5.30;;
3911;SDS011;1971;51.778;10.330;2023-07-29T09:24:33;5.90;;;5.60;;
3911;SDS011;1971;51.778;10.330;2023-07-29T09:27:04;6.27;;;5.57;;
3911;SDS011;1971;51.778;10.330;2023-07-29T09:29:38;6.53;;;6.13;;
3911;SDS011;1971;51.778;10.330;2023-07-29T09:32:18;6.17;;;5.50;;
3911;SDS011;1971;51.778;10.330;2023-07-29T09:34:49;5.20;;;4.83;;
3911;SDS011;1971;51.778;10.330;2023-07-29T09:37:20;3.77;;;3.57;;
3911;SDS011;1971;51.778;10.330;2023-07-29T09:39:52;5.60;;;5.10;;
3911;SDS011;1971;51.778;10.330;2023-07-29T09:42:22;5.93;;;5.50;;
3911;SDS011;1971;51.778;10.330;2023-07-29T09:44:55;3.83;;;3.63;;
3911;SDS011;1971;51.778;10.330;2023-07-29T09:47:25;3.03;;;2.70;;
3911;SDS011;1971;51.778;10.330;2023-07-29T09:49:56;4.43;;;4.20;;
3911;SDS011;1971;51.778;10.330;2023-07-29T09:52:28;5.00;;;4.70;;
3911;SDS011;1971;51.778;10.330;2023-07-29T09:54:58;4.70;;;4.40;;
3911;SDS011;1971;51.778;10.330;2023-07-29T09:57:29;4.40;;;4.10;;
3911;SDS011;1971;51.778;10.330;2023-07-29T10:00:02;4.03;;;3.83;;
3911;SDS011;1971;51.778;10.330;2023-07-29T10:02:38;4.20;;;3.90;;
3911;SDS011;1971;51.778;10.330;2023-07-29T10:05:09;4.70;;;4.27;;
3911;SDS011;1971;51.778;10.330;2023-07-29T10:07:40;4.70;;;4.30;;
3911;SDS011;1971;51.778;10.330;2023-07-29T10:10:10;4.83;;;4.50;;
3911;SDS011;1971;51.778;10.330;2023-07-29T10:12:41;5.03;;;4.63;;
3911;SDS011;1971;51.778;10.330;2023-07-29T10:15:14;5.10;;;4.67;;
3911;SDS011;1971;51.778;10.330;2023-07-29T10:17:44;4.03;;;3.83;;
3911;SDS011;1971;51.778;10.330;2023-07-29T10:20:16;5.30;;;4.90;;
3911;SDS011;1971;51.778;10.330;2023-07-29T10:22:46;5.70;;;5.40;;
3911;SDS011;1971;51.778;10.330;2023-07-29T10:25:18;5.73;;;5.33;;
3911;SDS011;1971;51.778;10.330;2023-07-29T10:27:53;5.17;;;4.87;;
3911;SDS011;1971;51.778;10.330;2023-07-29T10:30:30;4.67;;;4.27;;
3911;SDS011;1971;51.778;10.330;2023-07-29T10:33:02;4.60;;;4.20;;
3911;SDS011;1971;51.778;10.330;2023-07-29T10:35:33;10.50;;;4.00;;
3911;SDS011;1971;51.778;10.330;2023-07-29T10:38:05;3.00;;;2.80;;
3911;SDS011;1971;51.778;10.330;2023-07-29T10:40:45;3.03;;;2.83;;
3911;SDS011;1971;51.778;10.330;2023-07-29T10:43:19;4.30;;;3.80;;
3911;SDS011;1971;51.778;10.330;2023-07-29T10:45:57;3.87;;;3.57;;
3911;SDS011;1971;51.778;10.330;2023-07-29T10:48:44;3.90;;;3.70;;
3911;SDS011;1971;51.778;10.330;2023-07-29T10:51:23;4.03;;;3.73;;
3911;SDS011;1971;51.778;10.330;2023-07-29T10:53:57;4.50;;;4.10;;
3911;SDS011;1971;51.778;10.330;2023-07-29T10:56:29;3.17;;;3.00;;
3911;SDS011;1971;51.778;10.330;2023-07-29T11:02:11;3.40;;;3.20;;
3911;SDS011;1971;51.778;10.330;2023-07-29T11:04:48;2.70;;;2.60;;
3911;SDS011;1971;51.778;10.330;2023-07-29T11:07:21;3.53;;;3.33;;
3911;SDS011;1971;51.778;10.330;2023-07-29T11:09:59;3.10;;;2.80;;
3911;SDS011;1971;51.778;10.330;2023-07-29T11:12:41;11.13;;;3.60;;
3911;SDS011;1971;51.778;10.330;2023-07-29T11:15:13;3.53;;;3.23;;
3911;SDS011;1971;51.778;10.330;2023-07-29T11:17:48;7.60;;;4.07;;
3911;SDS011;1971;51.778;10.330;2023-07-29T11:20:20;2.67;;;2.57;;
3911;SDS011;1971;51.778;10.330;2023-07-29T11:22:52;3.43;;;3.03;;
3911;SDS011;1971;51.778;10.330;2023-07-29T11:25:24;3.70;;;3.10;;
3911;SDS011;1971;51.778;10.330;2023-07-29T11:27:55;2.80;;;2.60;;
3911;SDS011;1971;51.778;10.330;2023-07-29T11:30:32;4.10;;;3.30;;
3911;SDS011;1971;51.778;10.330;2023-07-29T11:33:05;3.30;;;3.10;;
3911;SDS011;1971;51.778;10.330;2023-07-29T11:35:35;3.83;;;3.63;;
3911;SDS011;1971;51.778;10.330;2023-07-29T11:38:06;3.93;;;3.73;;
3911;SDS011;1971;51.778;10.330;2023-07-29T11:40:37;3.80;;;3.60;;
3911;SDS011;1971;51.778;10.330;2023-07-29T11:43:07;3.40;;;3.20;;
3911;SDS011;1971;51.778;10.330;2023-07-29T11:45:37;3.23;;;3.03;;
3911;SDS011;1971;51.778;10.330;2023-07-29T11:48:21;2.93;;;2.73;;
3911;SDS011;1971;51.778;10.330;2023-07-29T11:50:56;4.63;;;2.73;;
3911;SDS011;1971;51.778;10.330;2023-07-29T11:53:27;2.87;;;2.67;;
3911;SDS011;1971;51.778;10.330;2023-07-29T11:55:59;3.10;;;2.90;;
3911;SDS011;1971;51.778;10.330;2023-07-29T11:58:29;3.10;;;2.90;;
3911;SDS011;1971;51.778;10.330;2023-07-29T12:01:01;2.33;;;2.17;;
3911;SDS011;1971;51.778;10.330;2023-07-29T12:03:35;2.23;;;2.13;;
3911;SDS011;1971;51.778;10.330;2023-07-29T12:06:07;2.77;;;2.57;;
3911;SDS011;1971;51.778;10.330;2023-07-29T12:08:37;2.73;;;2.63;;
3911;SDS011;1971;51.778;10.330;2023-07-29T12:11:08;2.50;;;2.40;;
3911;SDS011;1971;51.778;10.330;2023-07-29T12:13:38;2.73;;;2.57;;
3911;SDS011;1971;51.778;10.330;2023-07-29T12:16:15;2.73;;;2.57;;
3911;SDS011;1971;51.778;10.330;2023-07-29T12:18:49;3.03;;;2.83;;
3911;SDS011;1971;51.778;10.330;2023-07-29T12:21:20;3.10;;;2.90;;
3911;SDS011;1971;51.778;10.330;2023-07-29T12:23:50;2.67;;;2.47;;
3911;SDS011;1971;51.778;10.330;2023-07-29T12:26:26;2.83;;;2.60;;
3911;SDS011;1971;51.778;10.330;2023-07-29T12:28:57;3.10;;;2.90;;
3911;SDS011;1971;51.778;10.330;2023-07-29T12:31:30;3.20;;;3.00;;
3911;SDS011;1971;51.778;10.330;2023-07-29T12:34:03;3.23;;;2.93;;
3911;SDS011;1971;51.778;10.330;2023-07-29T12:36:44;3.00;;;2.70;;
3911;SDS011;1971;51.778;10.330;2023-07-29T12:39:16;2.97;;;2.70;;
3911;SDS011;1971;51.778;10.330;2023-07-29T12:41:46;2.30;;;2.20;;
3911;SDS011;1971;51.778;10.330;2023-07-29T12:44:17;2.60;;;2.40;;
3911;SDS011;1971;51.778;10.330;2023-07-29T12:46:48;2.63;;;2.47;;
3911;SDS011;1971;51.778;10.330;2023-07-29T12:49:21;3.90;;;3.60;;
3911;SDS011;1971;51.778;10.330;2023-07-29T12:51:52;3.30;;;2.97;;
3911;SDS011;1971;51.778;10.330;2023-07-29T12:54:22;3.37;;;3.07;;
3911;SDS011;1971;51.778;10.330;2023-07-29T12:56:52;2.70;;;2.50;;
3911;SDS011;1971;51.778;10.330;2023-07-29T12:59:22;2.70;;;2.50;;
3911;SDS011;1971;51.778;10.330;2023-07-29T13:01:53;2.93;;;2.73;;
3911;SDS011;1971;51.778;10.330;2023-07-29T13:04:26;3.13;;;2.93;;
3911;SDS011;1971;51.778;10.330;2023-07-29T13:06:56;2.43;;;2.33;;
3911;SDS011;1971;51.778;10.330;2023-07-29T13:09:26;2.70;;;2.60;;
3911;SDS011;1971;51.778;10.330;2023-07-29T13:11:56;3.30;;;2.43;;
3911;SDS011;1971;51.778;10.330;2023-07-29T13:14:26;2.07;;;1.90;;
3911;SDS011;1971;51.778;10.330;2023-07-29T13:16:56;2.07;;;1.97;;
3911;SDS011;1971;51.778;10.330;2023-07-29T13:19:29;2.17;;;2.07;;
3911;SDS011;1971;51.778;10.330;2023-07-29T13:21:59;2.47;;;2.27;;
3911;SDS011;1971;51.778;10.330;2023-07-29T13:24:29;2.10;;;2.00;;
3911;SDS011;1971;51.778;10.330;2023-07-29T13:26:59;1.67;;;1.57;;
3911;SDS011;1971;51.778;10.330;2023-07-29T13:29:29;1.63;;;1.53;;
3911;SDS011;1971;51.778;10.330;2023-07-29T13:31:59;2.10;;;1.90;;
3911;SDS011;1971;51.778;10.330;2023-07-29T13:34:32;2.70;;;2.50;;
3911;SDS011;1971;51.778;10.330;2023-07-29T13:37:02;2.00;;;1.90;;
3911;SDS011;1971;51.778;10.330;2023-07-29T13:39:33;1.87;;;1.77;;
3911;SDS011;1971;51.778;10.330;2023-07-29T13:42:03;1.53;;;1.43;;
3911;SDS011;1971;51.778;10.330;2023-07-29T13:44:34;1.50;;;1.40;;
3911;SDS011;1971;51.778;10.330;2023-07-29T13:47:04;1.73;;;1.63;;
3911;SDS011;1971;51.778;10.330;2023-07-29T13:49:37;1.40;;;1.33;;
3911;SDS011;1971;51.778;10.330;2023-07-29T13:52:07;1.93;;;1.23;;
3911;SDS011;1971;51.778;10.330;2023-07-29T13:54:37;1.50;;;1.40;;
3911;SDS011;1971;51.778;10.330;2023-07-29T13:57:08;1.37;;;1.27;;
3911;SDS011;1971;51.778;10.330;2023-07-29T13:59:38;1.07;;;1.00;;
3911;SDS011;1971;51.778;10.330;2023-07-29T14:02:09;1.33;;;1.23;;
3911;SDS011;1971;51.778;10.330;2023-07-29T14:04:41;1.43;;;1.33;;
3911;SDS011;1971;51.778;10.330;2023-07-29T14:07:11;1.73;;;1.40;;
3911;SDS011;1971;51.778;10.330;2023-07-29T14:09:41;1.30;;;1.20;;
3911;SDS011;1971;51.778;10.330;2023-07-29T14:12:12;1.33;;;1.23;;
3911;SDS011;1971;51.778;10.330;2023-07-29T14:14:42;1.27;;;1.17;;
3911;SDS011;1971;51.778;10.330;2023-07-29T14:17:13;1.07;;;1.07;;
3911;SDS011;1971;51.778;10.330;2023-07-29T14:19:45;1.40;;;1.30;;
3911;SDS011;1971;51.778;10.330;2023-07-29T14:22:16;1.10;;;1.10;;
3911;SDS011;1971;51.778;10.330;2023-07-29T14:24:46;1.60;;;1.23;;
3911;SDS011;1971;51.778;10.330;2023-07-29T14:27:16;1.10;;;1.10;;
3911;SDS011;1971;51.778;10.330;2023-07-29T14:29:46;1.57;;;1.10;;
3911;SDS011;1971;51.778;10.330;2023-07-29T14:32:17;1.73;;;1.23;;
3911;SDS011;1971;51.778;10.330;2023-07-29T14:34:52;1.30;;;1.20;;
3911;SDS011;1971;51.778;10.330;2023-07-29T14:37:22;1.10;;;1.00;;
3911;SDS011;1971;51.778;10.330;2023-07-29T14:39:53;1.70;;;1.57;;
3911;SDS011;1971;51.778;10.330;2023-07-29T14:42:23;1.70;;;1.60;;
3911;SDS011;1971;51.778;10.330;2023-07-29T14:44:53;1.70;;;1.60;;
3911;SDS011;1971;51.778;10.330;2023-07-29T14:47:24;1.50;;;1.40;;
3911;SDS011;1971;51.778;10.330;2023-07-29T14:49:57;1.80;;;1.70;;
3911;SDS011;1971;51.778;10.330;2023-07-29T14:52:27;1.70;;;1.60;;
3911;SDS011;1971;51.778;10.330;2023-07-29T14:54:57;2.10;;;1.90;;
3911;SDS011;1971;51.778;10.330;2023-07-29T14:57:27;1.90;;;1.53;;
3911;SDS011;1971;51.778;10.330;2023-07-29T14:59:58;1.40;;;1.30;;
3911;SDS011;1971;51.778;10.330;2023-07-29T15:02:28;1.60;;;1.50;;
3911;SDS011;1971;51.778;10.330;2023-07-29T15:05:01;1.70;;;1.60;;
3911;SDS011;1971;51.778;10.330;2023-07-29T15:07:31;1.70;;;1.60;;
3911;SDS011;1971;51.778;10.330;2023-07-29T15:10:01;1.40;;;1.30;;
3911;SDS011;1971;51.778;10.330;2023-07-29T15:12:32;1.43;;;1.33;;
3911;SDS011;1971;51.778;10.330;2023-07-29T15:15:02;1.80;;;1.70;;
3911;SDS011;1971;51.778;10.330;2023-07-29T15:17:32;1.97;;;1.87;;
3911;SDS011;1971;51.778;10.330;2023-07-29T15:20:05;1.70;;;1.60;;
3911;SDS011;1971;51.778;10.330;2023-07-29T15:22:36;1.87;;;1.30;;
3911;SDS011;1971;51.778;10.330;2023-07-29T15:25:08;1.87;;;1.77;;
3911;SDS011;1971;51.778;10.330;2023-07-29T15:27:38;1.40;;;1.37;;
3911;SDS011;1971;51.778;10.330;2023-07-29T15:30:08;1.80;;;1.70;;
3911;SDS011;1971;51.778;10.330;2023-07-29T15:32:39;1.50;;;1.40;;